createdAt,value
2019-03-01T00:03:19.260Z,13.17
2019-03-01T00:08:40.878Z,14.60
2019-03-01T00:14:13.503Z,13.93
2019-03-01T00:19:52.343Z,15.70
2019-03-01T00:25:33.989Z,15.80
2019-03-01T00:31:12.993Z,14.67
2019-03-01T00:36:49.934Z,17.37
2019-03-01T00:42:28.464Z,18.85
2019-03-01T00:47:34.726Z,15.27
2019-03-01T00:52:42.712Z,19.10
2019-03-01T00:57:48.979Z,18.20
2019-03-01T01:02:56.780Z,22.30
2019-03-01T01:08:03.361Z,23.97
2019-03-01T01:13:09.641Z,21.17
2019-03-01T01:18:15.906Z,21.05
2019-03-01T01:23:25.737Z,19.37
2019-03-01T01:28:35.716Z,16.53
2019-03-01T01:33:42.056Z,19.97
2019-03-01T01:38:48.541Z,18.45
2019-03-01T01:43:54.831Z,22.13
2019-03-01T01:49:01.311Z,17.33
2019-03-01T01:54:07.604Z,19.40
2019-03-01T01:59:16.960Z,18.12
2019-03-01T02:04:23.747Z,20.60
2019-03-01T02:09:30.324Z,14.87
2019-03-01T02:14:37.953Z,20.60
2019-03-01T02:19:44.333Z,18.13
2019-03-01T02:24:50.571Z,15.97
2019-03-01T02:29:57.731Z,20.03
2019-03-01T02:35:04.028Z,18.90
2019-03-01T02:40:14.086Z,18.00
2019-03-01T02:45:21.772Z,19.25
2019-03-01T02:50:28.197Z,17.03
2019-03-01T02:55:34.678Z,16.48
2019-03-01T03:00:40.979Z,15.73
2019-03-01T03:06:18.448Z,15.18
2019-03-01T03:11:24.895Z,14.43
2019-03-01T03:16:31.147Z,16.97
2019-03-01T03:21:37.549Z,17.53
2019-03-01T03:26:43.922Z,22.13
2019-03-01T03:31:50.314Z,19.53
2019-03-01T03:36:56.945Z,21.23
2019-03-01T03:42:03.343Z,21.63
2019-03-01T03:47:09.708Z,21.13
2019-03-01T03:52:15.943Z,21.17
2019-03-01T03:57:22.546Z,21.70
2019-03-01T04:02:28.911Z,18.70
2019-03-01T04:07:36.870Z,23.07
2019-03-01T04:12:44.581Z,28.07
2019-03-01T04:17:50.901Z,23.27
2019-03-01T04:23:00.108Z,22.53
2019-03-01T04:28:06.441Z,29.52
2019-03-01T04:33:12.881Z,24.87
2019-03-01T04:38:19.263Z,28.53
2019-03-01T04:43:26.895Z,28.32
2019-03-01T04:48:33.442Z,33.67
2019-03-01T04:53:39.667Z,42.13
2019-03-01T04:58:45.933Z,56.23
2019-03-01T05:03:52.315Z,67.25
2019-03-01T05:08:58.624Z,81.67
2019-03-01T05:14:05.666Z,88.57
2019-03-01T05:19:11.931Z,94.43
2019-03-01T05:24:18.284Z,88.67
2019-03-01T05:29:24.515Z,81.23
2019-03-01T05:34:30.824Z,92.87
2019-03-01T05:39:37.058Z,107.23
2019-03-01T05:44:43.280Z,116.10
2019-03-01T05:49:49.551Z,116.50
2019-03-01T05:54:55.784Z,131.37
2019-03-01T06:00:02.138Z,132.43
2019-03-01T06:05:15.904Z,138.07
2019-03-01T06:10:34.649Z,154.37
2019-03-01T06:16:11.071Z,172.63
2019-03-01T06:22:19.401Z,169.93
2019-03-01T06:27:48.480Z,196.65
2019-03-01T06:33:44.483Z,194.67
2019-03-01T06:40:30.567Z,183.20
2019-03-01T06:46:29.999Z,151.77
2019-03-01T06:51:38.234Z,130.63
2019-03-01T06:56:46.710Z,121.80
2019-03-01T07:01:53.016Z,116.37
2019-03-01T07:06:59.231Z,124.90
2019-03-01T07:12:05.580Z,123.07
2019-03-01T07:17:11.815Z,126.45
2019-03-01T07:22:18.062Z,122.77
2019-03-01T07:27:24.420Z,127.90
2019-03-01T07:32:30.844Z,130.87
2019-03-01T07:37:43.685Z,131.50
2019-03-01T07:42:50.267Z,132.37
2019-03-01T07:47:56.765Z,140.63
2019-03-01T07:53:03.805Z,148.17
2019-03-01T07:58:11.170Z,153.82
2019-03-01T08:03:17.622Z,161.97
2019-03-01T08:08:23.972Z,162.17
2019-03-01T08:13:30.391Z,152.72
2019-03-01T08:18:40.215Z,155.23
2019-03-01T08:23:44.951Z,163.50
2019-03-01T08:28:54.694Z,153.57
2019-03-01T08:33:59.844Z,164.70
2019-03-01T08:39:07.222Z,155.93
2019-03-01T08:44:13.741Z,152.68
2019-03-01T08:49:21.861Z,171.90
2019-03-01T08:54:28.147Z,184.90
2019-03-01T08:59:34.442Z,189.22
2019-03-01T09:04:50.461Z,175.13
2019-03-01T09:09:50.341Z,164.37
2019-03-01T09:14:57.080Z,150.80
2019-03-01T09:20:07.194Z,152.10
2019-03-01T09:25:14.324Z,150.03
2019-03-01T09:30:22.893Z,140.30
2019-03-01T09:35:51.492Z,117.83
2019-03-01T09:41:01.310Z,114.80
2019-03-01T09:46:08.899Z,121.85
2019-03-01T09:51:16.019Z,131.83
2019-03-01T09:56:24.283Z,121.07
2019-03-01T10:01:30.862Z,126.77
2019-03-01T10:06:38.366Z,122.07
2019-03-01T10:11:45.003Z,122.73
2019-03-01T10:16:54.872Z,134.70
2019-03-01T10:22:01.129Z,141.37
2019-03-01T10:27:08.086Z,155.50
2019-03-01T10:32:14.403Z,149.50
2019-03-01T10:37:20.929Z,147.07
2019-03-01T10:42:27.271Z,133.70
2019-03-01T10:47:33.727Z,141.00
2019-03-01T10:52:40.271Z,146.63
2019-03-01T10:57:46.629Z,133.78
2019-03-01T11:02:54.502Z,124.57
2019-03-01T11:08:00.785Z,137.50
2019-03-01T11:13:08.077Z,128.10
2019-03-01T11:18:14.391Z,141.83
2019-03-01T11:23:22.405Z,128.07
2019-03-01T11:28:28.651Z,89.55
2019-03-01T11:33:34.902Z,73.00
2019-03-01T11:38:41.292Z,51.50
2019-03-01T11:43:47.779Z,55.73
2019-03-01T11:48:54.432Z,56.03
2019-03-01T11:54:00.847Z,44.00
2019-03-01T11:59:07.353Z,40.50
2019-03-01T12:04:13.677Z,36.68
2019-03-01T12:09:19.988Z,32.23
2019-03-01T12:14:27.785Z,23.97
2019-03-01T12:19:34.025Z,27.77
2019-03-01T12:24:40.372Z,27.17
2019-03-01T12:29:46.633Z,21.77
2019-03-01T12:34:54.761Z,21.25
2019-03-01T12:40:01.265Z,22.87
2019-03-01T12:45:10.478Z,22.57
2019-03-01T12:50:17.699Z,24.40
2019-03-01T12:55:24.063Z,24.77
2019-03-01T13:00:31.218Z,25.00
2019-03-01T13:05:37.518Z,26.35
2019-03-01T13:10:46.098Z,19.70
2019-03-01T13:15:52.447Z,19.40
2019-03-01T13:20:58.741Z,18.23
2019-03-01T13:26:06.155Z,21.23
2019-03-01T13:31:13.338Z,20.55
2019-03-01T13:36:19.699Z,23.32
2019-03-01T13:41:26.029Z,22.43
2019-03-01T13:46:33.432Z,21.87
2019-03-01T13:51:39.763Z,23.97
2019-03-01T13:56:47.520Z,28.40
2019-03-01T14:01:53.837Z,21.63
2019-03-01T14:07:00.203Z,19.33
2019-03-01T14:12:06.524Z,21.70
2019-03-01T14:17:13.845Z,22.75
2019-03-01T14:22:20.177Z,20.33
2019-03-01T14:27:29.563Z,20.63
2019-03-01T14:32:34.871Z,20.17
2019-03-01T14:37:41.154Z,19.43
2019-03-01T14:42:47.776Z,18.73
2019-03-01T14:47:54.411Z,18.43
2019-03-01T14:53:00.688Z,20.43
2019-03-01T14:58:14.158Z,26.33
2019-03-01T15:03:35.370Z,37.10
2019-03-01T15:08:44.114Z,32.28
2019-03-01T15:13:52.318Z,29.20
2019-03-01T15:19:00.036Z,22.20
2019-03-01T15:24:06.580Z,21.02
2019-03-01T15:29:14.027Z,20.20
2019-03-01T15:34:20.420Z,19.37
2019-03-01T15:39:28.301Z,16.67
2019-03-01T15:44:34.618Z,15.10
2019-03-01T15:49:40.897Z,13.43
2019-03-01T15:54:47.345Z,13.75
2019-03-01T15:59:53.654Z,15.10
2019-03-01T16:04:59.989Z,11.87
2019-03-01T16:10:07.692Z,9.63
2019-03-01T16:15:14.160Z,9.60
2019-03-01T16:20:21.224Z,11.35
2019-03-01T16:25:27.510Z,13.43
2019-03-01T16:30:33.889Z,11.63
2019-03-01T16:35:48.453Z,8.43
2019-03-01T16:40:56.759Z,12.63
2019-03-01T16:46:03.127Z,11.70
2019-03-01T16:51:10.630Z,8.73
2019-03-01T16:56:20.214Z,10.93
2019-03-01T17:01:29.796Z,9.23
2019-03-01T17:06:34.754Z,11.63
2019-03-01T17:11:42.836Z,11.97
2019-03-01T17:16:49.206Z,7.72
2019-03-01T17:21:55.572Z,9.63
2019-03-01T17:27:05.817Z,11.57
2019-03-01T17:32:12.472Z,13.45
2019-03-01T17:37:18.848Z,13.90
2019-03-01T17:42:25.146Z,10.17
2019-03-01T17:47:31.399Z,10.17
2019-03-01T17:52:37.999Z,6.80
2019-03-01T17:57:44.495Z,7.53
2019-03-01T18:02:52.121Z,7.50
2019-03-01T18:07:59.833Z,4.87
2019-03-01T18:13:07.104Z,7.10
2019-03-01T18:18:13.658Z,6.55
2019-03-01T18:23:20.025Z,7.87
2019-03-01T18:28:28.286Z,6.07
2019-03-01T18:33:35.342Z,6.80
2019-03-01T18:38:42.008Z,7.05
2019-03-01T18:43:50.318Z,4.73
2019-03-01T18:48:56.591Z,5.47
2019-03-01T18:54:04.154Z,6.07
2019-03-01T18:59:13.230Z,6.90
2019-03-01T19:04:29.354Z,3.43
2019-03-01T19:09:29.179Z,5.23
2019-03-01T19:14:39.124Z,6.55
2019-03-01T19:19:48.286Z,5.83
2019-03-01T19:24:54.747Z,5.77
2019-03-01T19:30:01.062Z,6.17
2019-03-01T19:35:10.583Z,7.13
2019-03-01T19:40:17.846Z,4.70
2019-03-01T19:45:28.667Z,5.53
2019-03-01T19:50:35.122Z,6.23
2019-03-01T19:55:43.988Z,4.00
2019-03-01T20:00:49.662Z,6.97
2019-03-01T20:05:56.329Z,4.93
2019-03-01T20:11:02.817Z,6.47
2019-03-01T20:16:09.104Z,5.13
2019-03-01T20:21:15.429Z,7.28
2019-03-01T20:26:23.539Z,11.13
2019-03-01T20:31:31.592Z,12.40
2019-03-01T20:36:38.042Z,9.67
2019-03-01T20:41:46.355Z,15.70
2019-03-01T20:46:57.320Z,11.47
2019-03-01T20:52:05.662Z,12.93
2019-03-01T20:57:12.325Z,13.13
2019-03-01T21:02:20.711Z,16.07
2019-03-01T21:07:27.041Z,21.10
2019-03-01T21:12:33.501Z,9.83
2019-03-01T21:17:41.535Z,9.70
2019-03-01T21:22:47.788Z,12.40
2019-03-01T21:27:54.058Z,11.93
2019-03-01T21:33:01.633Z,14.33
2019-03-01T21:38:10.565Z,12.47
2019-03-01T21:43:16.455Z,13.25
2019-03-01T21:48:25.291Z,17.33
2019-03-01T21:53:36.434Z,14.15
2019-03-01T21:58:42.945Z,13.20
2019-03-01T22:03:49.514Z,15.53
2019-03-01T22:08:57.075Z,17.33
2019-03-01T22:14:03.499Z,13.77
2019-03-01T22:19:10.103Z,13.25
2019-03-01T22:24:16.546Z,13.93
2019-03-01T22:29:24.688Z,15.07
2019-03-01T22:34:32.067Z,16.20
2019-03-01T22:39:38.865Z,18.15
2019-03-01T22:44:45.136Z,17.10
2019-03-01T22:49:51.460Z,14.80
2019-03-01T22:55:01.451Z,14.38
2019-03-01T23:00:09.667Z,14.35
2019-03-01T23:05:17.469Z,17.55
2019-03-01T23:10:23.771Z,12.73
2019-03-01T23:15:30.359Z,11.43
2019-03-01T23:20:36.763Z,9.53
2019-03-01T23:25:47.666Z,9.43
2019-03-01T23:30:54.076Z,9.00
2019-03-01T23:36:00.432Z,7.80
2019-03-01T23:41:07.787Z,8.80
2019-03-01T23:46:25.618Z,8.13
2019-03-01T23:51:30.586Z,8.17
2019-03-01T23:56:36.953Z,10.80
